createdAt,value
2019-01-19T00:01:59.558Z,23.83
2019-01-19T00:04:44.233Z,26.13
2019-01-19T00:07:25.805Z,26.03
2019-01-19T00:10:20.771Z,24.00
2019-01-19T00:12:59.107Z,24.47
2019-01-19T00:15:34.621Z,28.20
2019-01-19T00:18:25.161Z,22.43
2019-01-19T00:21:00.797Z,21.57
2019-01-19T00:23:33.466Z,20.30
2019-01-19T00:26:25.511Z,25.10
2019-01-19T00:29:10.366Z,24.10
2019-01-19T00:31:45.634Z,23.47
2019-01-19T00:34:34.138Z,22.70
2019-01-19T00:37:07.045Z,23.50
2019-01-19T00:40:05.298Z,26.03
2019-01-19T00:42:41.078Z,22.17
2019-01-19T00:45:19.872Z,23.97
2019-01-19T00:47:55.242Z,30.30
2019-01-19T00:50:27.957Z,24.77
2019-01-19T00:53:03.298Z,23.43
2019-01-19T00:55:44.871Z,23.40
2019-01-19T00:58:29.135Z,25.10
2019-01-19T01:01:01.830Z,24.53
2019-01-19T01:03:34.573Z,21.03
2019-01-19T01:06:09.947Z,26.93
2019-01-19T01:09:00.439Z,21.57
2019-01-19T01:11:35.820Z,23.63
2019-01-19T01:14:14.304Z,26.10
2019-01-19T01:16:55.572Z,19.83
2019-01-19T01:19:34.053Z,24.93
2019-01-19T01:22:09.447Z,25.50
2019-01-19T01:24:44.806Z,21.67
2019-01-19T01:27:20.389Z,23.23
2019-01-19T01:30:13.739Z,19.57
2019-01-19T01:33:01.121Z,25.83
2019-01-19T01:35:57.466Z,21.97
2019-01-19T01:38:41.835Z,21.83
2019-01-19T01:41:37.625Z,20.53
2019-01-19T01:44:35.442Z,20.60
2019-01-19T01:47:31.918Z,25.57
2019-01-19T01:50:10.407Z,22.17
2019-01-19T01:52:51.909Z,24.13
2019-01-19T01:55:24.585Z,22.87
2019-01-19T01:57:57.279Z,24.60
2019-01-19T02:00:38.651Z,21.90
2019-01-19T02:03:35.359Z,22.43
2019-01-19T02:06:16.894Z,21.40
2019-01-19T02:08:58.513Z,22.90
2019-01-19T02:11:33.812Z,23.20
2019-01-19T02:14:21.376Z,22.97
2019-01-19T02:17:05.619Z,23.10
2019-01-19T02:19:55.906Z,23.00
2019-01-19T02:22:43.577Z,24.27
2019-01-19T02:25:18.826Z,24.43
2019-01-19T02:28:10.764Z,22.90
2019-01-19T02:30:43.520Z,21.13
2019-01-19T02:33:34.236Z,24.83
2019-01-19T02:36:06.952Z,18.97
2019-01-19T02:38:45.170Z,23.20
2019-01-19T02:41:29.386Z,25.40
2019-01-19T02:44:13.954Z,24.07
2019-01-19T02:47:16.357Z,26.73
2019-01-19T02:50:08.538Z,27.57
2019-01-19T02:52:44.070Z,21.93
2019-01-19T02:55:31.497Z,33.70
2019-01-19T02:58:26.620Z,26.90
2019-01-19T03:01:23.173Z,26.23
2019-01-19T03:04:07.657Z,28.47
2019-01-19T03:06:56.523Z,26.27
2019-01-19T03:09:37.733Z,24.37
2019-01-19T03:12:13.357Z,25.10
2019-01-19T03:15:00.891Z,24.37
2019-01-19T03:17:57.347Z,30.30
2019-01-19T03:20:38.444Z,22.40
2019-01-19T03:23:31.721Z,25.43
2019-01-19T03:26:04.403Z,26.63
2019-01-19T03:28:45.651Z,30.13
2019-01-19T03:31:33.235Z,26.93
2019-01-19T03:34:08.792Z,31.03
2019-01-19T03:37:08.554Z,27.33
2019-01-19T03:40:14.320Z,32.70
2019-01-19T03:43:10.888Z,31.20
2019-01-19T03:46:02.638Z,28.23
2019-01-19T03:48:51.853Z,23.97
2019-01-19T03:51:45.359Z,30.77
2019-01-19T03:54:20.815Z,33.40
2019-01-19T03:56:53.426Z,31.93
2019-01-19T03:59:44.719Z,29.17
2019-01-19T04:02:34.977Z,31.40
2019-01-19T04:05:28.290Z,28.20
2019-01-19T04:08:17.113Z,26.77
2019-01-19T04:10:52.386Z,34.30
2019-01-19T04:13:36.303Z,29.47
2019-01-19T04:16:08.987Z,30.80
2019-01-19T04:18:50.788Z,26.03
2019-01-19T04:21:26.331Z,27.70
2019-01-19T04:23:58.964Z,28.60
2019-01-19T04:26:31.456Z,26.00
2019-01-19T04:29:01.153Z,27.37
2019-01-19T04:31:30.944Z,26.30
2019-01-19T04:34:01.079Z,23.03
2019-01-19T04:36:31.144Z,23.37
2019-01-19T04:39:01.733Z,25.33
2019-01-19T04:41:31.426Z,20.23
2019-01-19T04:44:01.190Z,22.23
2019-01-19T04:46:30.934Z,20.40
2019-01-19T04:49:00.706Z,24.63
2019-01-19T04:51:30.482Z,21.20
2019-01-19T04:54:00.094Z,23.37
2019-01-19T04:56:29.854Z,21.80
2019-01-19T04:58:59.761Z,23.20
2019-01-19T05:01:29.514Z,22.93
2019-01-19T05:03:59.201Z,19.43
2019-01-19T05:06:30.545Z,21.40
2019-01-19T05:09:00.629Z,19.00
2019-01-19T05:11:30.306Z,22.70
2019-01-19T05:14:00.060Z,27.03
2019-01-19T05:16:29.923Z,18.67
2019-01-19T05:18:59.648Z,18.97
2019-01-19T05:21:29.415Z,22.27
2019-01-19T05:23:59.370Z,23.57
2019-01-19T05:26:29.166Z,23.57
2019-01-19T05:28:58.867Z,21.47
2019-01-19T05:31:28.650Z,21.67
2019-01-19T05:33:58.407Z,21.07
2019-01-19T05:36:28.174Z,23.37
2019-01-19T05:38:57.870Z,21.97
2019-01-19T05:41:27.660Z,28.63
2019-01-19T05:43:57.377Z,21.37
2019-01-19T05:46:27.045Z,23.80
2019-01-19T05:48:56.833Z,26.17
2019-01-19T05:51:26.568Z,24.40
2019-01-19T05:53:56.249Z,23.90
2019-01-19T05:56:26.013Z,24.57
2019-01-19T05:58:55.746Z,22.03
2019-01-19T06:01:26.001Z,23.87
2019-01-19T06:03:55.678Z,22.13
2019-01-19T06:06:25.475Z,22.70
2019-01-19T06:08:55.194Z,21.53
2019-01-19T06:11:24.975Z,22.07
2019-01-19T06:13:54.658Z,22.93
2019-01-19T06:16:24.420Z,24.00
2019-01-19T06:18:54.506Z,21.37
2019-01-19T06:21:25.469Z,17.80
2019-01-19T06:23:55.318Z,14.17
2019-01-19T06:26:25.006Z,17.73
2019-01-19T06:28:54.687Z,20.30
2019-01-19T06:31:24.480Z,20.90
2019-01-19T06:33:54.275Z,20.30
2019-01-19T06:36:24.035Z,27.60
2019-01-19T06:38:53.767Z,20.40
2019-01-19T06:41:23.563Z,20.07
2019-01-19T06:43:53.322Z,21.27
2019-01-19T06:46:23.180Z,21.33
2019-01-19T06:48:52.847Z,20.67
2019-01-19T06:51:22.586Z,19.00
2019-01-19T06:53:52.677Z,19.77
2019-01-19T06:56:22.340Z,23.43
2019-01-19T06:58:51.944Z,23.47
2019-01-19T07:01:21.625Z,21.97
2019-01-19T07:03:51.204Z,24.83
2019-01-19T07:06:20.839Z,20.27
2019-01-19T07:08:50.640Z,23.63
2019-01-19T07:11:20.294Z,21.50
2019-01-19T07:13:50.006Z,25.40
2019-01-19T07:16:19.757Z,22.77
2019-01-19T07:18:49.434Z,22.70
2019-01-19T07:21:19.187Z,31.50
2019-01-19T07:23:49.056Z,32.00
2019-01-19T07:26:18.726Z,29.37
2019-01-19T07:28:48.502Z,30.63
2019-01-19T07:31:18.210Z,31.03
2019-01-19T07:33:47.974Z,28.00
2019-01-19T07:36:17.708Z,27.67
2019-01-19T07:38:47.385Z,26.13
2019-01-19T07:41:16.987Z,25.60
2019-01-19T07:43:46.719Z,28.40
2019-01-19T07:46:16.769Z,27.20
2019-01-19T07:48:46.568Z,26.60
2019-01-19T07:51:16.257Z,26.10
2019-01-19T07:53:45.975Z,30.77
2019-01-19T07:56:15.645Z,27.57
2019-01-19T07:58:45.342Z,30.77
2019-01-19T08:01:15.091Z,28.57
2019-01-19T08:03:44.847Z,28.03
2019-01-19T08:06:14.604Z,23.93
2019-01-19T08:08:44.321Z,20.93
2019-01-19T08:11:14.056Z,21.93
2019-01-19T08:13:43.854Z,24.90
2019-01-19T08:16:13.684Z,23.70
2019-01-19T08:18:43.371Z,21.87
2019-01-19T08:21:13.079Z,19.37
2019-01-19T08:23:42.984Z,17.10
2019-01-19T08:26:12.756Z,17.20
2019-01-19T08:28:42.560Z,18.07
2019-01-19T08:31:12.266Z,20.70
2019-01-19T08:33:41.975Z,16.27
2019-01-19T08:36:12.336Z,21.43
2019-01-19T08:38:42.168Z,16.33
2019-01-19T08:41:12.083Z,16.73
2019-01-19T08:43:43.666Z,21.53
2019-01-19T08:46:16.551Z,20.37
2019-01-19T08:48:46.233Z,20.17
2019-01-19T08:51:16.321Z,20.17
2019-01-19T08:53:46.752Z,18.87
2019-01-19T08:56:16.544Z,19.63
2019-01-19T08:58:47.794Z,17.47
2019-01-19T09:01:17.964Z,16.77
2019-01-19T09:03:47.720Z,17.33
2019-01-19T09:06:22.877Z,14.00
2019-01-19T09:08:52.687Z,16.47
2019-01-19T09:11:22.490Z,16.20
2019-01-19T09:13:52.357Z,17.23
2019-01-19T09:16:22.029Z,15.53
2019-01-19T09:18:51.878Z,16.00
2019-01-19T09:21:21.644Z,16.93
2019-01-19T09:23:53.097Z,20.77
2019-01-19T09:26:23.415Z,18.90
2019-01-19T09:28:57.379Z,13.47
2019-01-19T09:31:31.773Z,15.10
2019-01-19T09:34:01.534Z,17.10
2019-01-19T09:36:31.257Z,15.10
2019-01-19T09:39:00.960Z,15.07
2019-01-19T09:41:30.781Z,14.27
2019-01-19T09:44:00.439Z,13.03
2019-01-19T09:46:30.264Z,14.37
2019-01-19T09:49:00.200Z,15.07
2019-01-19T09:51:29.972Z,13.33
2019-01-19T09:53:59.839Z,12.87
2019-01-19T09:56:29.835Z,12.83
2019-01-19T09:58:59.657Z,15.53
2019-01-19T10:01:29.638Z,9.93
2019-01-19T10:03:59.773Z,10.13
2019-01-19T10:06:29.776Z,11.50
2019-01-19T10:08:59.578Z,11.63
2019-01-19T10:11:29.397Z,8.67
2019-01-19T10:13:59.176Z,11.37
2019-01-19T10:16:28.970Z,11.63
2019-01-19T10:18:58.831Z,12.57
2019-01-19T10:21:29.095Z,10.07
2019-01-19T10:23:59.027Z,9.70
2019-01-19T10:26:28.908Z,10.00
2019-01-19T10:28:58.993Z,9.37
2019-01-19T10:31:28.765Z,9.60
2019-01-19T10:33:58.629Z,9.60
2019-01-19T10:36:28.380Z,9.47
2019-01-19T10:39:02.966Z,7.97
2019-01-19T10:41:32.751Z,10.67
2019-01-19T10:44:02.463Z,7.63
2019-01-19T10:46:32.345Z,7.77
2019-01-19T10:49:02.171Z,12.43
2019-01-19T10:51:31.917Z,7.17
2019-01-19T10:54:01.705Z,10.53
2019-01-19T10:56:31.548Z,7.23
2019-01-19T10:59:01.282Z,5.93
2019-01-19T11:01:31.010Z,8.20
2019-01-19T11:04:00.758Z,6.57
2019-01-19T11:06:30.525Z,7.73
2019-01-19T11:09:01.824Z,5.10
2019-01-19T11:11:31.620Z,5.17
2019-01-19T11:14:01.313Z,5.37
2019-01-19T11:16:32.496Z,4.47
2019-01-19T11:19:03.358Z,4.20
2019-01-19T11:21:34.670Z,3.37
2019-01-19T11:24:05.723Z,9.10
2019-01-19T11:26:38.786Z,5.07
2019-01-19T11:29:08.531Z,4.60
2019-01-19T11:31:39.849Z,5.40
2019-01-19T11:34:09.818Z,5.67
2019-01-19T11:36:39.516Z,4.50
2019-01-19T11:39:09.223Z,6.87
2019-01-19T11:41:38.931Z,4.03
2019-01-19T11:44:08.692Z,5.67
2019-01-19T11:46:38.392Z,4.27
2019-01-19T11:49:08.200Z,5.63
2019-01-19T11:51:37.948Z,6.73
2019-01-19T11:54:08.079Z,4.93
2019-01-19T11:56:37.757Z,7.83
2019-01-19T11:59:07.570Z,7.37
2019-01-19T12:01:37.360Z,3.90
2019-01-19T12:04:07.147Z,4.00
2019-01-19T12:06:36.990Z,5.33
2019-01-19T12:09:07.940Z,4.13
2019-01-19T12:11:40.617Z,5.37
2019-01-19T12:14:12.403Z,8.00
2019-01-19T12:16:45.102Z,4.63
2019-01-19T12:19:17.555Z,4.53
2019-01-19T12:21:47.385Z,3.20
2019-01-19T12:24:17.155Z,6.03
2019-01-19T12:26:49.551Z,4.57
2019-01-19T12:29:19.312Z,4.47
2019-01-19T12:31:49.149Z,5.17
2019-01-19T12:34:19.007Z,4.77
2019-01-19T12:36:48.709Z,5.97
2019-01-19T12:39:18.456Z,4.33
2019-01-19T12:41:48.207Z,6.93
2019-01-19T12:44:17.915Z,4.63
2019-01-19T12:46:47.720Z,7.10
2019-01-19T12:49:17.472Z,4.87
2019-01-19T12:51:47.313Z,5.93
2019-01-19T12:54:18.106Z,4.97
2019-01-19T12:56:47.844Z,8.63
2019-01-19T12:59:17.669Z,5.30
2019-01-19T13:01:47.456Z,6.23
2019-01-19T13:04:17.191Z,6.00
2019-01-19T13:06:47.308Z,6.83
2019-01-19T13:09:17.169Z,4.97
2019-01-19T13:12:01.635Z,5.40
2019-01-19T13:14:32.216Z,5.77
2019-01-19T13:17:14.241Z,5.60
2019-01-19T13:19:46.902Z,5.70
2019-01-19T13:22:30.743Z,3.77
2019-01-19T13:25:18.263Z,5.07
2019-01-19T13:28:05.627Z,5.70
2019-01-19T13:30:44.105Z,6.77
2019-01-19T13:33:45.184Z,4.07
2019-01-19T13:36:20.562Z,5.53
2019-01-19T13:39:14.186Z,5.97
2019-01-19T13:42:13.727Z,4.07
2019-01-19T13:44:55.160Z,4.37
2019-01-19T13:47:39.403Z,9.40
2019-01-19T13:50:17.780Z,3.50
2019-01-19T13:53:11.137Z,6.03
2019-01-19T13:55:49.308Z,2.60
2019-01-19T13:58:30.864Z,5.67
2019-01-19T14:01:32.019Z,3.77
2019-01-19T14:04:13.292Z,6.57
2019-01-19T14:06:51.670Z,4.30
2019-01-19T14:09:30.164Z,6.57
2019-01-19T14:12:14.846Z,5.70
2019-01-19T14:14:53.483Z,6.10
2019-01-19T14:17:41.549Z,6.57
2019-01-19T14:20:42.025Z,5.13
2019-01-19T14:23:17.632Z,3.70
2019-01-19T14:25:55.982Z,7.50
2019-01-19T14:28:58.459Z,6.17
2019-01-19T14:31:33.827Z,6.90
2019-01-19T14:34:06.470Z,7.33
2019-01-19T14:36:57.351Z,5.10
2019-01-19T14:39:47.921Z,6.23
2019-01-19T14:42:29.309Z,6.13
2019-01-19T14:45:06.111Z,8.07
2019-01-19T14:47:48.776Z,5.83
2019-01-19T14:50:45.464Z,6.27
2019-01-19T14:53:48.050Z,6.90
2019-01-19T14:56:29.314Z,6.73
2019-01-19T14:59:05.593Z,6.07
2019-01-19T15:01:49.861Z,8.67
2019-01-19T15:04:51.571Z,8.57
2019-01-19T15:07:51.190Z,7.57
2019-01-19T15:10:32.549Z,5.97
2019-01-19T15:13:11.182Z,8.10
2019-01-19T15:15:50.167Z,5.77
2019-01-19T15:18:54.535Z,6.13
2019-01-19T15:21:30.047Z,7.53
2019-01-19T15:24:05.869Z,4.60
2019-01-19T15:26:38.558Z,9.03
2019-01-19T15:29:25.753Z,6.87
2019-01-19T15:32:04.398Z,8.40
2019-01-19T15:34:46.022Z,5.90
2019-01-19T15:37:27.683Z,9.43
2019-01-19T15:40:18.251Z,4.80
2019-01-19T15:42:56.785Z,5.57
2019-01-19T15:45:45.915Z,6.97
2019-01-19T15:48:24.546Z,6.63
2019-01-19T15:51:30.096Z,6.50
2019-01-19T15:54:18.984Z,7.83
2019-01-19T15:57:03.721Z,8.87
2019-01-19T15:59:53.587Z,5.93
2019-01-19T16:02:34.974Z,9.43
2019-01-19T16:05:10.566Z,8.60
2019-01-19T16:07:49.259Z,6.43
2019-01-19T16:10:54.904Z,7.27
2019-01-19T16:13:45.534Z,7.27
2019-01-19T16:16:27.075Z,8.40
2019-01-19T16:19:19.228Z,7.37
2019-01-19T16:22:09.042Z,8.10
2019-01-19T16:24:50.694Z,7.30
2019-01-19T16:27:29.272Z,7.67
2019-01-19T16:30:02.031Z,8.90
2019-01-19T16:32:37.556Z,7.43
2019-01-19T16:35:31.051Z,8.37
2019-01-19T16:38:18.551Z,6.80
2019-01-19T16:41:18.024Z,11.10
2019-01-19T16:43:53.160Z,9.03
2019-01-19T16:46:44.853Z,9.17
2019-01-19T16:49:34.460Z,9.97
2019-01-19T16:52:09.953Z,10.43
2019-01-19T16:54:48.843Z,6.80
2019-01-19T16:57:43.952Z,10.33
2019-01-19T17:00:41.812Z,10.33
2019-01-19T17:03:14.520Z,10.40
2019-01-19T17:06:16.019Z,9.73
2019-01-19T17:09:00.325Z,9.90
2019-01-19T17:11:33.001Z,9.30
2019-01-19T17:14:11.553Z,14.27
2019-01-19T17:16:52.794Z,11.27
2019-01-19T17:19:25.445Z,10.23
2019-01-19T17:22:09.691Z,11.37
2019-01-19T17:25:00.012Z,13.13
2019-01-19T17:27:50.146Z,11.90
2019-01-19T17:30:34.369Z,10.20
2019-01-19T17:33:09.692Z,12.53
2019-01-19T17:35:44.923Z,9.37
2019-01-19T17:38:38.417Z,12.67
2019-01-19T17:41:35.014Z,10.60
2019-01-19T17:44:19.735Z,10.77
2019-01-19T17:47:13.061Z,9.77
2019-01-19T17:49:45.734Z,13.00
2019-01-19T17:52:21.135Z,13.00
2019-01-19T17:55:08.830Z,14.37
2019-01-19T17:57:44.645Z,14.67
2019-01-19T18:00:34.000Z,15.03
2019-01-19T18:03:06.719Z,12.10
2019-01-19T18:05:42.256Z,15.93
2019-01-19T18:08:33.962Z,19.13
2019-01-19T18:11:24.391Z,14.13
2019-01-19T18:14:22.123Z,16.90
2019-01-19T18:17:11.431Z,12.70
2019-01-19T18:19:52.846Z,16.93
2019-01-19T18:22:37.187Z,15.77
2019-01-19T18:25:21.654Z,14.27
2019-01-19T18:28:11.009Z,17.70
2019-01-19T18:31:00.610Z,12.20
2019-01-19T18:33:39.220Z,16.43
2019-01-19T18:36:31.176Z,17.17
2019-01-19T18:39:21.604Z,16.47
2019-01-19T18:41:57.182Z,14.70
2019-01-19T18:44:56.869Z,12.53
2019-01-19T18:47:32.288Z,15.73
2019-01-19T18:50:27.197Z,18.17
2019-01-19T18:53:05.388Z,16.87
2019-01-19T18:56:10.991Z,15.50
2019-01-19T18:58:43.623Z,17.43
2019-01-19T19:01:28.938Z,20.70
2019-01-19T19:04:13.693Z,17.77
2019-01-19T19:07:05.303Z,21.63
2019-01-19T19:10:01.928Z,20.00
2019-01-19T19:12:31.928Z,16.63
2019-01-19T19:15:28.587Z,18.67
2019-01-19T19:18:16.058Z,20.53
2019-01-19T19:20:57.482Z,18.20
2019-01-19T19:23:35.662Z,16.53
2019-01-19T19:26:08.386Z,14.03
2019-01-19T19:29:04.776Z,18.47
2019-01-19T19:31:37.397Z,17.63
2019-01-19T19:34:32.858Z,20.97
2019-01-19T19:37:08.584Z,19.67
2019-01-19T19:39:43.974Z,18.20
2019-01-19T19:42:28.887Z,18.70
2019-01-19T19:45:16.646Z,21.50
2019-01-19T19:48:04.440Z,14.77
2019-01-19T19:50:56.630Z,16.73
2019-01-19T19:53:26.296Z,19.40
2019-01-19T19:55:54.732Z,17.30
2019-01-19T19:58:24.416Z,20.83
2019-01-19T20:00:54.662Z,16.27
2019-01-19T20:03:24.404Z,19.40
2019-01-19T20:05:54.032Z,15.43
2019-01-19T20:08:23.790Z,23.17
2019-01-19T20:10:53.475Z,18.13
2019-01-19T20:13:23.084Z,21.60
2019-01-19T20:15:52.769Z,20.27
2019-01-19T20:18:22.567Z,21.23
2019-01-19T20:20:52.812Z,22.90
2019-01-19T20:23:22.519Z,24.13
2019-01-19T20:25:52.103Z,17.00
2019-01-19T20:28:21.768Z,20.50
2019-01-19T20:30:51.554Z,17.63
2019-01-19T20:33:21.480Z,17.20
2019-01-19T20:35:51.893Z,16.73
2019-01-19T20:38:22.210Z,16.90
2019-01-19T20:40:52.202Z,23.57
2019-01-19T20:43:21.899Z,18.17
2019-01-19T20:45:51.503Z,19.13
2019-01-19T20:48:21.274Z,15.43
2019-01-19T20:50:50.913Z,17.97
2019-01-19T20:53:21.049Z,19.13
2019-01-19T20:55:51.031Z,16.67
2019-01-19T20:58:20.998Z,19.73
2019-01-19T21:00:50.979Z,18.77
2019-01-19T21:03:20.792Z,16.73
2019-01-19T21:05:50.416Z,21.53
2019-01-19T21:08:20.014Z,16.83
2019-01-19T21:10:49.630Z,19.30
2019-01-19T21:13:19.267Z,20.83
2019-01-19T21:15:49.104Z,21.60
2019-01-19T21:18:18.775Z,20.47
2019-01-19T21:20:48.658Z,24.37
2019-01-19T21:23:18.277Z,18.93
2019-01-19T21:25:47.959Z,18.50
2019-01-19T21:28:17.684Z,21.27
2019-01-19T21:30:47.266Z,25.37
2019-01-19T21:33:16.850Z,24.40
2019-01-19T21:35:46.620Z,22.43
2019-01-19T21:38:16.328Z,22.47
2019-01-19T21:40:45.998Z,25.10
2019-01-19T21:43:15.693Z,27.93
2019-01-19T21:45:45.440Z,20.43
2019-01-19T21:48:15.109Z,24.13
2019-01-19T21:50:44.794Z,25.27
2019-01-19T21:53:14.487Z,23.63
2019-01-19T21:55:44.191Z,22.87
2019-01-19T21:58:13.885Z,21.57
2019-01-19T22:00:43.514Z,22.50
2019-01-19T22:03:13.191Z,22.57
2019-01-19T22:05:49.502Z,27.10
2019-01-19T22:08:14.090Z,22.67
2019-01-19T22:10:46.364Z,24.03
2019-01-19T22:13:15.278Z,26.50
2019-01-19T22:15:44.932Z,27.37
2019-01-19T22:18:14.466Z,31.27
2019-01-19T22:20:44.094Z,27.77
2019-01-19T22:23:13.772Z,31.73
2019-01-19T22:25:43.414Z,27.47
2019-01-19T22:28:13.084Z,33.37
2019-01-19T22:30:42.722Z,35.47
2019-01-19T22:33:13.207Z,29.07
2019-01-19T22:35:42.957Z,33.13
2019-01-19T22:38:12.585Z,34.97
2019-01-19T22:40:42.256Z,30.73
2019-01-19T22:43:11.947Z,32.10
2019-01-19T22:45:41.648Z,39.03
2019-01-19T22:48:11.310Z,34.73
2019-01-19T22:50:41.055Z,36.50
2019-01-19T22:53:10.768Z,41.70
2019-01-19T22:55:40.470Z,29.93
2019-01-19T22:58:10.110Z,34.93
2019-01-19T23:01:02.198Z,36.73
2019-01-19T23:03:32.950Z,34.93
2019-01-19T23:06:02.595Z,37.30
2019-01-19T23:08:32.216Z,42.00
2019-01-19T23:11:01.930Z,41.93
2019-01-19T23:13:31.564Z,38.90
2019-01-19T23:16:01.234Z,40.33
2019-01-19T23:18:30.968Z,37.93
2019-01-19T23:21:00.698Z,36.03
2019-01-19T23:23:30.334Z,39.70
2019-01-19T23:26:01.709Z,34.83
2019-01-19T23:28:31.367Z,44.33
2019-01-19T23:31:01.115Z,37.37
2019-01-19T23:33:30.737Z,41.90
2019-01-19T23:36:00.402Z,41.57
2019-01-19T23:38:30.101Z,39.57
2019-01-19T23:40:59.737Z,43.13
2019-01-19T23:43:29.304Z,51.93
2019-01-19T23:45:59.058Z,36.23
2019-01-19T23:48:28.741Z,41.40
2019-01-19T23:50:58.440Z,48.20
2019-01-19T23:53:28.091Z,40.33
2019-01-19T23:55:57.723Z,42.53
2019-01-19T23:58:27.344Z,41.63
